createdAt,value
2018-06-18T00:01:23.033Z,15.60
2018-06-18T00:03:51.371Z,15.60
2018-06-18T00:06:20.709Z,15.60
2018-06-18T00:08:49.317Z,15.60
2018-06-18T00:11:47.868Z,15.60
2018-06-18T00:16:53.807Z,15.60
2018-06-18T00:19:23.298Z,15.60
2018-06-18T00:21:52.546Z,15.50
2018-06-18T00:24:20.866Z,15.50
2018-06-18T00:26:49.136Z,15.50
2018-06-18T00:29:18.229Z,15.50
2018-06-18T00:32:01.106Z,15.50
2018-06-18T00:34:30.494Z,15.50
2018-06-18T00:36:59.099Z,15.50
2018-06-18T00:39:28.754Z,15.50
2018-06-18T00:41:57.869Z,15.50
2018-06-18T00:44:31.529Z,15.40
2018-06-18T00:47:01.687Z,15.40
2018-06-18T00:49:30.839Z,15.40
2018-06-18T00:52:02.284Z,15.40
2018-06-18T00:54:38.223Z,15.40
2018-06-18T00:57:21.755Z,15.40
2018-06-18T00:59:51.382Z,15.40
2018-06-18T01:02:20.478Z,15.40
2018-06-18T01:04:49.590Z,15.40
2018-06-18T01:07:18.218Z,15.50
2018-06-18T01:09:46.564Z,15.50
2018-06-18T01:12:15.711Z,15.50
2018-06-18T01:14:44.018Z,15.60
2018-06-18T01:17:12.395Z,15.60
2018-06-18T01:19:41.443Z,15.60
2018-06-18T01:22:09.751Z,15.60
2018-06-18T01:24:41.579Z,15.60
2018-06-18T01:27:09.910Z,15.60
2018-06-18T01:29:39.031Z,15.60
2018-06-18T01:32:07.280Z,15.60
2018-06-18T01:34:36.088Z,15.60
2018-06-18T01:37:04.322Z,15.50
2018-06-18T01:39:32.803Z,15.50
2018-06-18T01:42:02.052Z,15.50
2018-06-18T01:44:30.299Z,15.50
2018-06-18T01:46:59.151Z,15.50
2018-06-18T01:49:27.675Z,15.50
2018-06-18T01:51:55.995Z,15.60
2018-06-18T01:54:25.040Z,15.50
2018-06-18T01:56:54.913Z,15.60
2018-06-18T02:02:09.224Z,15.60
2018-06-18T02:04:38.044Z,15.60
2018-06-18T02:07:07.370Z,15.70
2018-06-18T02:09:41.084Z,15.70
2018-06-18T02:12:10.562Z,15.70
2018-06-18T02:14:39.547Z,15.70
2018-06-18T02:17:07.920Z,15.70
2018-06-18T02:19:55.679Z,15.70
2018-06-18T02:22:23.967Z,15.60
2018-06-18T02:24:55.718Z,15.60
2018-06-18T02:27:28.367Z,15.60
2018-06-18T02:30:02.211Z,15.50
2018-06-18T02:32:37.553Z,15.50
2018-06-18T02:35:16.000Z,15.50
2018-06-18T02:40:39.319Z,15.40
2018-06-18T02:43:20.657Z,15.40
2018-06-18T02:45:51.475Z,15.40
2018-06-18T02:48:20.359Z,15.40
2018-06-18T02:50:49.543Z,15.30
2018-06-18T02:53:18.408Z,15.40
2018-06-18T02:55:49.662Z,15.40
2018-06-18T02:58:17.994Z,15.40
2018-06-18T03:00:53.522Z,15.40
2018-06-18T03:03:22.759Z,15.50
2018-06-18T03:05:51.138Z,15.50
2018-06-18T03:08:33.416Z,15.50
2018-06-18T03:11:01.748Z,15.50
2018-06-18T03:13:31.057Z,15.50
2018-06-18T03:15:59.955Z,15.60
2018-06-18T03:18:34.925Z,15.70
2018-06-18T03:21:09.004Z,15.70
2018-06-18T03:23:43.655Z,15.80
2018-06-18T03:26:19.002Z,15.80
2018-06-18T03:28:53.696Z,15.90
2018-06-18T03:31:28.016Z,15.90
2018-06-18T03:33:57.050Z,16.00
2018-06-18T03:36:25.347Z,16.00
2018-06-18T03:38:54.414Z,16.00
2018-06-18T03:41:23.679Z,16.10
2018-06-18T03:43:57.691Z,16.10
2018-06-18T03:46:27.365Z,16.20
2018-06-18T03:48:59.991Z,16.10
2018-06-18T03:51:33.047Z,16.10
2018-06-18T03:54:05.306Z,16.10
2018-06-18T03:56:37.554Z,16.10
2018-06-18T03:59:07.938Z,16.10
2018-06-18T04:01:54.657Z,16.10
2018-06-18T04:04:28.450Z,16.10
2018-06-18T04:07:04.328Z,16.00
2018-06-18T04:09:38.427Z,15.90
2018-06-18T04:12:08.841Z,15.90
2018-06-18T04:14:38.198Z,15.80
2018-06-18T04:17:09.219Z,15.70
2018-06-18T04:19:37.717Z,15.70
2018-06-18T04:22:06.715Z,15.70
2018-06-18T04:24:34.976Z,15.60
2018-06-18T04:27:04.950Z,15.60
2018-06-18T04:31:12.997Z,15.60
2018-06-18T04:33:47.917Z,15.60
2018-06-18T04:36:16.575Z,15.50
2018-06-18T04:38:45.243Z,15.50
2018-06-18T04:41:14.910Z,15.50
2018-06-18T04:43:52.466Z,15.50
2018-06-18T04:46:26.102Z,15.60
2018-06-18T04:49:03.615Z,15.60
2018-06-18T04:51:46.022Z,15.70
2018-06-18T04:54:15.050Z,15.70
2018-06-18T04:56:44.463Z,15.80
2018-06-18T04:59:13.746Z,15.80
2018-06-18T05:01:42.849Z,15.90
2018-06-18T05:04:11.939Z,15.90
2018-06-18T05:06:40.667Z,16.00
2018-06-18T05:09:30.666Z,16.00
2018-06-18T05:11:58.982Z,16.00
2018-06-18T05:14:31.354Z,16.10
2018-06-18T05:17:04.240Z,16.10
2018-06-18T05:19:32.715Z,16.20
2018-06-18T05:22:03.488Z,16.20
2018-06-18T05:24:32.890Z,16.30
2018-06-18T05:27:01.736Z,16.30
2018-06-18T05:29:34.143Z,16.30
2018-06-18T05:32:02.655Z,16.40
2018-06-18T05:34:42.125Z,16.50
2018-06-18T05:37:14.266Z,16.50
2018-06-18T05:39:43.622Z,16.60
2018-06-18T05:45:43.337Z,16.60
2018-06-18T05:51:00.673Z,16.70
2018-06-18T05:53:30.996Z,16.80
2018-06-18T05:56:00.374Z,16.80
2018-06-18T05:58:29.917Z,16.90
2018-06-18T06:01:05.886Z,16.90
2018-06-18T06:09:13.439Z,17.30
2018-06-18T06:14:33.186Z,17.50
2018-06-18T06:17:04.932Z,17.50
2018-06-18T06:19:34.009Z,17.50
2018-06-18T06:22:03.163Z,17.40
2018-06-18T06:24:31.686Z,17.30
2018-06-18T06:27:00.841Z,17.30
2018-06-18T06:29:34.434Z,17.30
2018-06-18T06:32:13.080Z,17.30
2018-06-18T06:34:45.071Z,17.30
2018-06-18T06:37:19.271Z,17.20
2018-06-18T06:49:19.895Z,17.30
2018-06-18T06:52:01.435Z,17.30
2018-06-18T06:59:52.064Z,17.40
2018-06-18T07:04:58.299Z,17.40
2018-06-18T07:07:27.630Z,17.60
2018-06-18T07:10:02.461Z,17.70
2018-06-18T07:18:04.687Z,17.80
2018-06-18T07:20:40.277Z,17.80
2018-06-18T07:23:09.667Z,17.80
2018-06-18T07:25:44.563Z,17.90
2018-06-18T07:28:22.643Z,18.00
2018-06-18T07:30:53.837Z,18.10
2018-06-18T07:33:22.898Z,18.30
2018-06-18T07:38:29.736Z,18.40
2018-06-18T07:43:39.883Z,18.40
2018-06-18T07:46:08.537Z,18.40
2018-06-18T07:48:48.026Z,18.40
2018-06-18T07:54:02.081Z,18.70
2018-06-18T07:56:31.078Z,18.90
2018-06-18T07:59:03.671Z,18.90
2018-06-18T08:01:34.102Z,18.90
2018-06-18T08:04:07.620Z,18.90
2018-06-18T08:06:45.254Z,18.80
2018-06-18T08:09:24.555Z,18.80
2018-06-18T08:11:57.499Z,18.70
2018-06-18T08:14:31.920Z,18.70
2018-06-18T08:20:00.080Z,19.00
2018-06-18T08:22:28.388Z,19.20
2018-06-18T08:27:52.075Z,19.80
2018-06-18T08:38:26.687Z,20.50
2018-06-18T08:41:17.410Z,20.60
2018-06-18T08:43:56.012Z,20.70
2018-06-18T08:49:17.684Z,21.00
2018-06-18T08:54:48.300Z,21.00
2018-06-18T09:00:10.231Z,21.20
2018-06-18T09:05:29.525Z,21.40
2018-06-18T09:09:09.319Z,21.50
2018-06-18T09:11:49.770Z,21.60
2018-06-18T09:14:28.451Z,21.60
2018-06-18T09:17:01.379Z,21.60
2018-06-18T09:19:36.477Z,21.60
2018-06-18T09:24:44.944Z,21.80
2018-06-18T09:32:50.560Z,22.30
2018-06-18T09:35:28.899Z,22.30
2018-06-18T09:38:13.667Z,22.30
2018-06-18T09:49:04.795Z,22.30
2018-06-18T09:51:41.648Z,22.30
2018-06-18T09:54:21.069Z,22.20
2018-06-18T09:56:58.539Z,22.10
2018-06-18T09:59:46.841Z,22.10
2018-06-18T10:02:28.762Z,22.10
2018-06-18T10:05:00.560Z,22.10
2018-06-18T10:10:28.755Z,22.20
2018-06-18T10:13:06.955Z,22.40
2018-06-18T10:15:41.232Z,22.80
2018-06-18T10:18:19.742Z,23.00
2018-06-18T10:20:51.446Z,23.20
2018-06-18T10:23:25.167Z,23.20
2018-06-18T10:25:55.431Z,23.30
2018-06-18T10:28:28.991Z,23.20
2018-06-18T10:31:00.142Z,23.10
2018-06-18T10:33:35.586Z,23.10
2018-06-18T10:36:14.307Z,23.10
2018-06-18T10:41:34.400Z,23.00
2018-06-18T10:44:12.506Z,22.80
2018-06-18T10:46:49.315Z,22.70
2018-06-18T10:58:10.286Z,22.30
2018-06-18T11:09:14.736Z,22.10
2018-06-18T11:12:02.338Z,22.20
2018-06-18T11:19:39.427Z,22.60
2018-06-18T11:25:17.030Z,22.70
2018-06-18T11:33:15.691Z,22.60
2018-06-18T11:35:59.607Z,22.60
2018-06-18T11:41:19.671Z,22.50
2018-06-18T11:49:43.090Z,22.00
2018-06-18T12:12:46.935Z,23.40
2018-06-18T12:33:34.523Z,24.20
2018-06-18T12:36:20.818Z,24.40
2018-06-18T12:44:45.636Z,24.60
2018-06-18T12:47:27.079Z,24.50
2018-06-18T12:55:45.685Z,24.50
2018-06-18T12:58:29.862Z,24.50
2018-06-18T13:03:57.079Z,24.60
2018-06-18T13:06:33.577Z,24.80
2018-06-18T13:11:52.289Z,25.00
2018-06-18T13:14:21.074Z,25.00
2018-06-18T13:19:30.468Z,25.20
2018-06-18T13:22:05.343Z,25.30
2018-06-18T13:27:13.662Z,25.20
2018-06-18T13:37:54.922Z,25.00
2018-06-18T13:40:47.905Z,25.20
2018-06-18T13:43:28.349Z,25.20
2018-06-18T13:46:04.784Z,25.20
2018-06-18T13:48:42.899Z,25.20
2018-06-18T13:51:25.539Z,25.20
2018-06-18T13:54:05.000Z,25.20
2018-06-18T13:56:40.094Z,25.30
2018-06-18T13:59:25.019Z,25.30
2018-06-18T14:04:43.851Z,25.10
2018-06-18T14:07:16.552Z,25.00
2018-06-18T14:15:35.401Z,24.90
2018-06-18T14:18:09.101Z,24.90
2018-06-18T14:20:43.097Z,24.90
2018-06-18T14:23:17.547Z,24.80
2018-06-18T14:25:47.266Z,24.80
2018-06-18T14:28:21.163Z,24.70
2018-06-18T14:33:49.771Z,24.60
2018-06-18T14:36:24.380Z,24.40
2018-06-18T14:38:59.619Z,24.20
2018-06-18T14:41:38.639Z,24.10
2018-06-18T14:44:10.329Z,24.10
2018-06-18T14:46:43.351Z,24.20
2018-06-18T14:49:15.480Z,24.50
2018-06-18T14:51:44.123Z,24.80
2018-06-18T14:54:16.249Z,24.90
2018-06-18T14:56:58.756Z,25.10
2018-06-18T14:59:36.646Z,25.20
2018-06-18T15:02:08.486Z,25.40
2018-06-18T15:04:38.919Z,25.70
2018-06-18T15:07:08.971Z,25.80
2018-06-18T15:12:20.406Z,25.60
2018-06-18T15:14:54.786Z,25.60
2018-06-18T15:17:28.715Z,25.40
2018-06-18T15:22:59.930Z,24.60
2018-06-18T15:25:44.720Z,24.20
2018-06-18T15:28:24.366Z,23.80
2018-06-18T15:31:11.930Z,23.60
2018-06-18T15:33:45.604Z,23.30
2018-06-18T15:36:23.417Z,23.20
2018-06-18T17:37:34.784Z,21.50
2018-06-18T19:39:46.663Z,19.60
2018-06-18T19:59:36.631Z,19.20
2018-06-18T20:02:24.683Z,19.30
2018-06-18T20:39:23.704Z,19.30
2018-06-18T20:50:43.090Z,18.80
2018-06-18T20:58:45.307Z,18.70
2018-06-18T21:01:18.095Z,18.60
2018-06-18T21:03:58.537Z,18.50
2018-06-18T21:06:35.007Z,18.40
2018-06-18T21:09:14.538Z,18.40
2018-06-18T21:11:47.164Z,18.40
2018-06-18T21:14:20.712Z,18.40
2018-06-18T21:16:53.282Z,18.50
2018-06-18T21:19:23.334Z,18.60
2018-06-18T21:21:55.399Z,18.50
2018-06-18T21:24:26.387Z,18.50
2018-06-18T21:27:04.240Z,18.40
2018-06-18T21:40:44.752Z,18.10
2018-06-18T21:43:14.767Z,18.10
2018-06-18T21:45:44.268Z,18.10
2018-06-18T21:50:51.294Z,18.00
2018-06-18T21:56:15.691Z,17.90
2018-06-18T22:02:00.152Z,17.90
2018-06-18T22:07:23.745Z,18.00
2018-06-18T22:10:05.580Z,18.00
2018-06-18T22:15:20.012Z,18.10
2018-06-18T22:27:33.410Z,18.20
2018-06-18T22:32:58.019Z,18.20
2018-06-18T22:35:30.698Z,18.30
2018-06-18T22:38:03.152Z,18.30
2018-06-18T22:40:56.750Z,18.30
2018-06-18T22:43:33.874Z,18.30
2018-06-18T22:46:02.527Z,18.30
2018-06-18T22:48:31.595Z,18.30
2018-06-18T22:51:09.550Z,18.30
2018-06-18T22:53:44.006Z,18.30
2018-06-18T22:56:19.375Z,18.30
2018-06-18T23:01:31.225Z,18.30
2018-06-18T23:04:05.793Z,18.30
2018-06-18T23:06:34.379Z,18.20
2018-06-18T23:09:11.388Z,18.20
2018-06-18T23:11:41.925Z,18.30
2018-06-18T23:14:16.397Z,18.30
2018-06-18T23:16:50.537Z,18.30
2018-06-18T23:19:26.272Z,18.30
2018-06-18T23:22:00.576Z,18.30
2018-06-18T23:24:30.707Z,18.30
2018-06-18T23:27:01.098Z,18.30
2018-06-18T23:29:29.375Z,18.30
2018-06-18T23:32:00.524Z,18.30
2018-06-18T23:34:29.502Z,18.30
2018-06-18T23:36:59.096Z,18.20
2018-06-18T23:39:29.014Z,18.20
2018-06-18T23:42:03.644Z,18.20
2018-06-18T23:44:33.155Z,18.20
2018-06-18T23:47:03.076Z,18.20
2018-06-18T23:49:33.475Z,18.20
2018-06-18T23:52:03.997Z,18.20
2018-06-18T23:54:33.507Z,18.10
2018-06-18T23:59:39.820Z,18.10
